Time;durP1;ratioP1;P1;durP2;ratioP2;P2;SDS_P1;SDS_P2;PMS_P1;PMS_P2;Temp;Humidity;BMP_temperature;BMP_pressure;BME280_temperature;BME280_humidity;BME280_pressure;Samples;Min_cycle;Max_cycle;Signal;HPM_P1;HPM_P2
2023/10/10 00:02:19;;;;;;;5.30;2.30;;;13.10;99.90;13.10;100826.00;;;;4998895;27;93000;-64
2023/10/10 00:04:49;;;;;;;3.63;2.70;;;13.10;99.90;13.10;100822.00;;;;4996095;27;93164;-64
2023/10/10 00:07:16;;;;;;;4.43;3.37;;;13.10;99.90;13.10;100816.00;;;;4995952;27;93170;-65
2023/10/10 00:09:44;;;;;;;8.03;3.17;;;13.10;99.90;13.10;100827.00;;;;5000057;27;92086;-65
2023/10/10 00:12:18;;;;;;;4.87;3.40;;;13.10;99.90;13.10;100816.00;;;;5001837;27;93161;-65
2023/10/10 00:14:50;;;;;;;5.13;3.17;;;13.10;99.90;13.10;100812.00;;;;5003472;27;93327;-65
2023/10/10 00:17:17;;;;;;;4.87;2.93;;;13.10;99.90;13.10;100820.00;;;;4999196;27;96022;-65
2023/10/10 00:19:44;;;;;;;4.17;3.57;;;13.10;99.90;13.20;100814.00;;;;5001587;27;92940;-65
2023/10/10 00:22:10;;;;;;;4.70;2.67;;;13.10;99.90;13.20;100813.00;;;;5002365;27;92729;-65
2023/10/10 00:24:36;;;;;;;8.87;3.23;;;13.20;99.90;13.20;100813.00;;;;5002060;27;118601;-65
2023/10/10 00:27:10;;;;;;;4.07;3.40;;;13.20;99.90;13.20;100803.00;;;;5002286;27;121876;-65
2023/10/10 00:29:44;;;;;;;4.10;3.33;;;13.20;99.90;13.20;100811.00;;;;5003321;27;92636;-65
2023/10/10 00:32:35;;;;;;;6.30;3.20;;;13.20;99.90;13.20;100802.00;;;;5003875;27;92994;-65
2023/10/10 00:35:02;;;;;;;4.30;3.17;;;13.20;99.90;13.20;100801.00;;;;5002749;27;93015;-65
2023/10/10 00:37:34;;;;;;;4.33;3.43;;;13.50;99.90;13.20;100793.00;;;;4993599;27;93738;-65
2023/10/10 00:40:12;;;;;;;4.63;4.00;;;13.20;99.90;13.20;100803.00;;;;5000220;27;93329;-65
2023/10/10 00:42:42;;;;;;;4.80;3.87;;;13.20;99.90;13.10;100800.00;;;;5002615;27;93800;-65
2023/10/10 00:45:12;;;;;;;4.23;3.23;;;13.10;99.90;13.10;100800.00;;;;5002923;27;96427;-66
2023/10/10 00:47:42;;;;;;;5.67;3.33;;;13.10;99.90;13.10;100801.00;;;;4994433;27;93280;-65
2023/10/10 00:50:15;;;;;;;4.90;3.67;;;13.10;99.90;13.10;100801.00;;;;4991488;27;96296;-65
2023/10/10 00:52:56;;;;;;;5.13;3.50;;;13.10;99.90;13.10;100789.00;;;;5004040;27;95790;-65
2023/10/10 00:55:24;;;;;;;5.20;3.80;;;13.10;99.90;13.00;100798.00;;;;4998099;27;93119;-65
2023/10/10 00:57:56;;;;;;;5.80;4.50;;;13.10;99.90;13.00;100784.00;;;;4983900;27;94719;-65
2023/10/10 01:00:25;;;;;;;7.20;3.93;;;13.10;99.90;13.00;100793.00;;;;5002480;27;92115;-65
2023/10/10 01:03:01;;;;;;;5.37;3.23;;;13.00;99.90;13.00;100788.00;;;;5003419;27;92973;-65
2023/10/10 01:05:39;;;;;;;4.23;2.97;;;13.00;99.90;13.00;100797.00;;;;4999751;27;93087;-65
2023/10/10 01:08:07;;;;;;;5.50;4.10;;;13.00;99.90;13.10;100787.00;;;;5001626;27;94568;-65
2023/10/10 01:10:42;;;;;;;6.90;4.13;;;13.10;99.90;13.10;100788.00;;;;5003495;27;93275;-65
2023/10/10 01:13:10;;;;;;;5.27;3.67;;;13.10;99.90;13.10;100784.00;;;;5004656;27;92895;-65
2023/10/10 01:15:37;;;;;;;5.47;3.80;;;13.10;99.90;13.10;100783.00;;;;5000090;27;93052;-64
2023/10/10 01:18:12;;;;;;;6.13;4.00;;;13.10;99.90;13.10;100779.00;;;;5003871;27;93614;-64
2023/10/10 01:20:45;;;;;;;5.67;4.33;;;13.10;99.90;13.20;100771.00;;;;5001955;27;92709;-64
2023/10/10 01:23:26;;;;;;;5.23;4.13;;;13.10;99.90;13.20;100773.00;;;;5005837;27;92829;-64
2023/10/10 01:26:05;;;;;;;5.93;4.00;;;13.20;99.90;13.20;100778.00;;;;5005826;27;93549;-64
2023/10/10 01:28:34;;;;;;;4.87;3.03;;;13.20;99.90;13.20;100778.00;;;;4992527;27;93502;-64
2023/10/10 01:31:10;;;;;;;4.67;4.23;;;13.20;99.90;13.30;100781.00;;;;5006888;27;92822;-64
2023/10/10 01:33:36;;;;;;;4.20;3.80;;;13.20;99.90;13.30;100783.00;;;;5007083;27;94006;-64
2023/10/10 01:36:13;;;;;;;3.60;2.83;;;13.30;99.90;13.30;100788.00;;;;4992508;27;94323;-65
2023/10/10 01:38:44;;;;;;;4.20;3.47;;;13.30;99.90;13.40;100802.00;;;;4989835;27;92946;-64
2023/10/10 01:41:22;;;;;;;4.93;3.97;;;13.40;99.90;13.40;100795.00;;;;5002423;27;93343;-64
2023/10/10 01:43:53;;;;;;;5.30;3.70;;;13.40;99.90;13.50;100795.00;;;;5007091;27;92879;-64
2023/10/10 01:46:27;;;;;;;5.53;3.70;;;13.50;99.90;13.60;100803.00;;;;5003996;27;94148;-65
2023/10/10 01:48:56;;;;;;;3.93;2.60;;;13.50;99.90;13.60;100807.00;;;;5004854;27;93635;-65
2023/10/10 01:51:25;;;;;;;4.28;3.45;;;13.50;99.90;13.60;100797.00;;;;5004040;27;99715;-65
2023/10/10 01:54:14;;;;;;;8.48;3.75;;;13.60;99.90;13.70;100797.00;;;;5002991;27;92868;-65
2023/10/10 01:56:42;;;;;;;3.78;3.33;;;13.60;99.90;13.70;100799.00;;;;5007683;27;93449;-65
2023/10/10 01:59:13;;;;;;;5.63;3.33;;;13.70;99.90;13.80;100795.00;;;;5004661;27;94062;-65
2023/10/10 02:01:39;;;;;;;4.90;3.50;;;13.70;99.90;13.80;100802.00;;;;5009647;27;93146;-65
2023/10/10 02:04:07;;;;;;;5.35;3.65;;;13.80;99.90;13.80;100803.00;;;;5007320;27;93561;-65
2023/10/10 02:06:39;;;;;;;4.63;2.50;;;13.80;99.90;13.80;100796.00;;;;5006998;27;94041;-65
2023/10/10 02:11:38;;;;;;;2.72;2.50;;;13.90;99.90;13.90;100796.00;;;;5008537;27;93338;-64
2023/10/10 02:14:11;;;;;;;3.45;2.60;;;13.90;99.90;13.90;100792.00;;;;5006062;27;93449;-64
2023/10/10 02:16:40;;;;;;;4.97;3.33;;;13.90;99.90;13.90;100797.00;;;;5004155;27;92485;-64
2023/10/10 02:19:23;;;;;;;3.90;2.45;;;13.90;99.90;14.00;100788.00;;;;5008092;27;93644;-64
2023/10/10 02:21:51;;;;;;;2.85;2.30;;;13.90;99.90;14.00;100780.00;;;;5002339;27;92824;-64
2023/10/10 02:26:55;;;;;;;2.33;2.08;;;14.00;99.90;14.10;100790.00;;;;5005576;27;92858;-64
2023/10/10 02:29:34;;;;;;;3.43;2.47;;;14.00;99.90;14.10;100783.00;;;;5005493;27;93454;-64
2023/10/10 02:32:09;;;;;;;3.67;2.38;;;14.00;99.90;14.10;100789.00;;;;5002436;27;92991;-65
2023/10/10 02:34:36;;;;;;;2.80;1.67;;;14.10;99.90;14.10;100781.00;;;;5005428;27;93007;-65
2023/10/10 02:39:54;;;;;;;2.03;1.83;;;14.10;99.90;14.20;100779.00;;;;5001991;27;94074;-65
2023/10/10 02:42:20;;;;;;;3.20;2.15;;;14.10;99.90;14.20;100774.00;;;;5007366;27;92217;-65
2023/10/10 02:44:46;;;;;;;2.35;1.88;;;14.20;99.90;14.20;100783.00;;;;5003471;27;93302;-65
2023/10/10 02:47:13;;;;;;;4.05;2.22;;;14.20;99.90;14.20;100792.00;;;;5003887;27;94064;-65
2023/10/10 02:49:42;;;;;;;2.15;1.40;;;14.20;99.90;14.30;100804.00;;;;5005036;27;111332;-65
2023/10/10 02:52:08;;;;;;;2.17;1.92;;;14.30;99.90;14.30;100803.00;;;;5004171;27;93235;-65
2023/10/10 02:54:34;;;;;;;3.03;1.35;;;14.20;99.90;14.30;100797.00;;;;5004582;27;92868;-65
2023/10/10 02:59:50;;;;;;;4.30;1.90;;;14.30;99.90;14.30;100779.00;;;;5004146;27;94253;-65
2023/10/10 03:02:24;;;;;;;1.77;1.63;;;14.30;99.90;14.30;100790.00;;;;5006025;27;92986;-65
2023/10/10 03:07:29;;;;;;;1.57;1.30;;;14.20;99.90;14.30;100799.00;;;;5005819;27;93071;-65
2023/10/10 03:12:49;;;;;;;3.25;2.05;;;14.30;99.90;14.30;100790.00;;;;4991847;27;93274;-65
2023/10/10 03:15:27;;;;;;;2.50;2.17;;;14.30;99.90;14.40;100798.00;;;;5004077;27;93803;-65
2023/10/10 03:20:49;;;;;;;2.03;1.80;;;14.30;99.90;14.40;100796.00;;;;5004442;27;92767;-65
2023/10/10 03:25:48;;;;;;;1.98;1.63;;;14.40;99.90;14.40;100797.00;;;;5010147;27;102235;-66
2023/10/10 03:29:04;;;;;;;3.80;1.85;;;14.40;99.90;14.40;100792.00;;;;5008859;27;93316;-66
2023/10/10 05:25:50;;;;;;;3.33;2.45;;;14.30;99.90;14.30;100830.00;;;;5007716;27;93205;-65
2023/10/10 05:28:20;;;;;;;4.90;3.10;;;14.30;99.90;14.20;100847.00;;;;5006769;27;93978;-65
2023/10/10 05:30:46;;;;;;;3.45;2.72;;;14.30;99.90;14.20;100835.00;;;;5004051;27;95078;-65
2023/10/10 05:33:14;;;;;;;5.50;3.30;;;14.30;99.90;14.20;100832.00;;;;5003707;27;94112;-65
2023/10/10 05:35:43;;;;;;;3.47;2.72;;;14.20;99.90;14.20;100839.00;;;;4989244;27;93167;-66
2023/10/10 05:38:10;;;;;;;3.60;2.65;;;14.20;99.90;14.20;100844.00;;;;5002364;27;93151;-65
2023/10/10 05:40:38;;;;;;;7.00;3.03;;;14.20;99.90;14.20;100839.00;;;;5002874;27;104880;-65
2023/10/10 05:43:09;;;;;;;3.10;2.27;;;14.20;99.90;14.20;100827.00;;;;5005985;27;93373;-65
2023/10/10 05:45:36;;;;;;;3.03;2.55;;;14.10;99.90;14.10;100835.00;;;;5008733;27;92961;-64
2023/10/10 05:48:02;;;;;;;3.70;2.47;;;14.10;99.90;14.10;100844.00;;;;5007986;27;99440;-64
2023/10/10 05:50:28;;;;;;;5.78;3.17;;;14.10;99.90;14.10;100855.00;;;;5006684;27;113949;-64
2023/10/10 05:52:53;;;;;;;4.43;2.83;;;14.10;99.90;14.10;100844.00;;;;5008971;27;92975;-65
2023/10/10 05:55:20;;;;;;;4.03;2.60;;;14.10;99.90;14.10;100848.00;;;;5008163;27;93805;-66
2023/10/10 05:57:46;;;;;;;2.53;2.33;;;14.10;99.90;14.20;100849.00;;;;5008374;27;113735;-64
2023/10/10 06:00:13;;;;;;;4.10;2.78;;;14.10;99.90;14.20;100850.00;;;;4996267;27;93797;-66
2023/10/10 06:02:43;;;;;;;3.45;2.38;;;14.10;99.90;14.20;100853.00;;;;4999645;27;92716;-67
2023/10/10 06:05:09;;;;;;;3.50;2.33;;;14.20;99.90;14.20;100854.00;;;;4983823;27;92956;-65
2023/10/10 06:07:42;;;;;;;2.85;2.60;;;14.20;99.90;14.20;100855.00;;;;5006306;27;94693;-65
2023/10/10 06:10:18;;;;;;;4.55;2.72;;;14.20;99.90;14.20;100856.00;;;;4996637;27;93295;-65
2023/10/10 06:12:48;;;;;;;11.65;2.97;;;14.10;99.90;14.10;100863.00;;;;5006572;27;92027;-65
2023/10/10 06:15:19;;;;;;;4.53;3.03;;;14.10;99.90;14.10;100856.00;;;;5002011;27;92861;-65
2023/10/10 06:18:08;;;;;;;2.55;2.33;;;14.10;99.90;14.20;100865.00;;;;5007061;27;92936;-65
2023/10/10 06:20:40;;;;;;;3.60;2.60;;;14.10;99.90;14.20;100880.00;;;;5002663;27;94208;-65
2023/10/10 06:23:08;;;;;;;3.42;2.35;;;14.20;99.90;14.30;100880.00;;;;5002898;27;93195;-66
2023/10/10 06:25:35;;;;;;;2.70;1.88;;;14.30;99.90;14.40;100889.00;;;;5006706;27;92865;-66
2023/10/10 06:28:04;;;;;;;1.83;1.73;;;14.30;99.90;14.40;100890.00;;;;5003745;27;93840;-64
2023/10/10 06:30:36;;;;;;;4.15;2.60;;;14.40;99.90;14.50;100891.00;;;;5006919;27;93677;-65
2023/10/10 06:33:10;;;;;;;2.10;1.75;;;14.40;99.90;14.50;100892.00;;;;5005957;27;92864;-65
2023/10/10 06:35:37;;;;;;;2.80;2.10;;;14.50;99.90;14.50;100897.00;;;;5008190;27;92895;-65
2023/10/10 06:38:10;;;;;;;2.75;2.50;;;14.50;99.90;14.50;100893.00;;;;5007534;27;92894;-65
2023/10/10 06:40:53;;;;;;;2.47;1.90;;;14.50;99.90;14.50;100890.00;;;;5004849;27;92949;-65
2023/10/10 06:43:22;;;;;;;3.28;2.78;;;14.50;99.90;14.70;100905.00;;;;5007081;27;93402;-66
2023/10/10 06:45:54;;;;;;;6.38;2.30;;;14.60;99.90;15.00;100897.00;;;;4988005;27;94330;-65
2023/10/10 06:48:24;;;;;;;3.33;3.03;;;14.90;99.90;15.40;100894.00;;;;5004995;27;93461;-66
2023/10/10 06:50:50;;;;;;;2.92;2.60;;;15.20;99.90;15.60;100901.00;;;;5004518;27;93019;-65
2023/10/10 06:53:35;;;;;;;19.75;2.95;;;15.50;99.90;15.70;100902.00;;;;5006637;27;95141;-64
2023/10/10 06:56:17;;;;;;;7.40;1.17;;;15.60;99.90;15.80;100905.00;;;;5006177;27;95227;-64
2023/10/10 06:58:47;;;;;;;3.00;1.95;;;15.80;99.90;15.90;100909.00;;;;5003231;27;93560;-63
2023/10/10 07:01:19;;;;;;;1.95;1.75;;;15.80;99.90;15.80;100909.00;;;;5007449;27;107431;-63
2023/10/10 07:03:54;;;;;;;3.15;1.60;;;15.80;99.90;15.80;100910.00;;;;5008624;27;92344;-63
2023/10/10 07:06:23;;;;;;;2.70;1.65;;;15.80;99.90;15.80;100909.00;;;;5003876;27;93125;-64
2023/10/10 07:11:34;;;;;;;4.13;1.77;;;15.80;99.90;15.80;100915.00;;;;5005332;27;94184;-63
2023/10/10 07:13:59;;;;;;;2.50;1.80;;;15.80;99.90;15.80;100920.00;;;;5002080;27;93097;-64
2023/10/10 07:16:25;;;;;;;4.57;1.05;;;15.80;99.90;15.80;100913.00;;;;5003784;27;92836;-65
2023/10/10 07:18:56;;;;;;;1.60;1.40;;;15.80;99.90;15.80;100914.00;;;;5001840;27;123965;-65
2023/10/10 07:21:36;;;;;;;3.75;2.58;;;15.80;99.90;15.90;100912.00;;;;5001718;27;94103;-64
2023/10/10 07:24:05;;;;;;;1.88;1.33;;;15.90;99.90;15.90;100915.00;;;;5006586;27;93054;-64
2023/10/10 07:26:40;;;;;;;2.50;1.83;;;15.90;99.90;16.00;100904.00;;;;5007777;27;93178;-65
2023/10/10 07:29:26;;;;;;;1.55;1.45;;;15.90;99.90;16.00;100922.00;;;;4990400;27;92470;-64
2023/10/10 07:31:54;;;;;;;2.70;1.52;;;16.00;99.90;16.00;100923.00;;;;5004213;27;93211;-64
2023/10/10 07:34:34;;;;;;;3.28;1.63;;;16.00;99.90;16.00;100917.00;;;;5004709;27;93297;-64
2023/10/10 07:37:07;;;;;;;2.03;1.67;;;16.00;99.90;16.00;100932.00;;;;5003029;27;93812;-64
2023/10/10 07:39:34;;;;;;;1.95;1.27;;;16.00;99.90;16.00;100924.00;;;;5004464;27;93987;-64
2023/10/10 07:42:00;;;;;;;3.33;1.83;;;16.00;99.90;16.00;100926.00;;;;5004879;27;93751;-63
2023/10/10 07:44:25;;;;;;;1.75;1.38;;;16.00;99.90;16.10;100931.00;;;;5002756;27;93022;-64
2023/10/10 07:49:35;;;;;;;2.97;1.50;;;16.00;99.90;16.10;100932.00;;;;5000373;27;93082;-65
2023/10/10 07:52:04;;;;;;;1.27;1.17;;;16.10;99.90;16.10;100929.00;;;;5002308;27;115199;-63
2023/10/10 07:54:38;;;;;;;1.52;1.10;;;16.10;99.90;16.10;100934.00;;;;5007123;27;92318;-64
2023/10/10 07:57:17;;;;;;;3.05;1.58;;;16.10;99.90;16.10;100939.00;;;;5001924;27;93118;-63
2023/10/10 07:59:44;;;;;;;2.65;1.60;;;16.10;99.90;16.20;100940.00;;;;5002322;27;93976;-64
2023/10/10 08:02:26;;;;;;;1.65;1.10;;;16.10;99.90;16.20;100944.00;;;;5000583;27;114086;-64
2023/10/10 08:04:57;;;;;;;1.83;1.33;;;16.10;99.90;16.20;100938.00;;;;5004616;27;93174;-64
2023/10/10 08:07:24;;;;;;;2.55;1.50;;;16.20;99.90;16.30;100938.00;;;;4974632;27;93246;-63
2023/10/10 08:10:11;;;;;;;4.63;1.58;;;16.20;99.90;16.40;100925.00;;;;5004016;27;93934;-64
2023/10/10 08:12:37;;;;;;;1.10;1.05;;;16.30;99.90;16.70;100924.00;;;;5007738;27;92901;-64
2023/10/10 08:15:19;;;;;;;1.30;1.13;;;16.50;99.90;16.90;100922.00;;;;5004428;27;92920;-65
2023/10/10 08:17:52;;;;;;;1.63;1.50;;;16.80;99.90;17.00;100924.00;;;;5008901;27;92751;-65
2023/10/10 08:21:08;;;;;;;1.60;1.40;;;17.00;99.90;17.10;100933.00;;;;5001902;27;92765;-65
2023/10/10 08:23:24;;;;;;;2.53;1.50;;;17.00;99.90;17.20;100943.00;;;;5004354;27;92952;-65
2023/10/10 08:25:51;;;;;;;2.40;1.90;;;17.10;99.90;17.20;100940.00;;;;5002547;27;92907;-65
2023/10/10 08:28:18;;;;;;;1.23;1.13;;;17.20;99.90;17.20;100943.00;;;;4991352;27;94686;-65
2023/10/10 08:30:43;;;;;;;2.00;1.45;;;17.20;99.90;17.20;100942.00;;;;5001467;27;93474;-65
2023/10/10 08:33:09;;;;;;;1.38;1.27;;;17.20;99.90;17.20;100940.00;;;;5003604;27;120124;-65
2023/10/10 08:35:38;;;;;;;1.67;1.48;;;17.10;99.90;17.10;100941.00;;;;5004166;27;110871;-65
2023/10/10 08:38:08;;;;;;;1.77;1.33;;;17.10;99.90;17.10;100941.00;;;;5002695;27;93133;-64
2023/10/10 08:40:35;;;;;;;1.23;1.13;;;17.10;99.90;17.10;100938.00;;;;5004346;27;94007;-64
2023/10/10 08:43:09;;;;;;;1.80;1.50;;;17.00;99.90;17.00;100937.00;;;;5002791;27;95069;-64
2023/10/10 08:45:39;;;;;;;1.40;1.30;;;17.00;99.90;17.00;100938.00;;;;5004989;27;92209;-65
2023/10/10 08:48:12;;;;;;;4.40;1.67;;;17.00;99.90;17.00;100943.00;;;;5005221;27;92926;-65
2023/10/10 08:50:44;;;;;;;2.00;1.65;;;16.90;99.90;17.10;100942.00;;;;5003655;27;93122;-65
2023/10/10 08:53:14;;;;;;;1.83;1.17;;;17.00;99.90;17.20;100940.00;;;;5008917;27;93943;-64
2023/10/10 08:55:40;;;;;;;1.77;1.65;;;17.10;99.90;17.30;100924.00;;;;5003739;27;93052;-65
2023/10/10 08:58:07;;;;;;;1.30;1.00;;;17.20;99.90;17.30;100939.00;;;;4999418;27;92898;-64
2023/10/10 09:00:34;;;;;;;1.10;1.10;;;17.30;99.90;17.40;100937.00;;;;5003800;27;92902;-65
2023/10/10 09:03:00;;;;;;;1.75;1.45;;;17.30;99.90;17.40;100942.00;;;;5005019;27;95117;-67
2023/10/10 09:05:28;;;;;;;1.30;1.05;;;17.30;99.90;17.40;100940.00;;;;4999299;27;110072;-65
2023/10/10 09:08:05;;;;;;;1.27;1.08;;;17.30;99.90;17.40;100944.00;;;;5003516;27;92929;-65
2023/10/10 09:10:39;;;;;;;1.52;1.42;;;17.10;99.90;17.40;100945.00;;;;5002988;27;92904;-65
2023/10/10 09:13:07;;;;;;;1.73;1.27;;;17.30;99.90;17.40;100958.00;;;;5005214;27;93037;-67
2023/10/10 09:15:37;;;;;;;1.20;1.10;;;17.30;99.90;17.30;100958.00;;;;5001590;27;93162;-65
2023/10/10 09:18:22;;;;;;;0.60;0.60;;;17.30;99.90;17.40;100948.00;;;;5006094;27;94131;-65
2023/10/10 09:20:47;;;;;;;1.50;1.08;;;17.30;99.90;17.40;100954.00;;;;4990041;27;93943;-65
2023/10/10 09:23:26;;;;;;;1.48;1.35;;;17.30;99.90;17.40;100953.00;;;;5000976;27;123388;-64
2023/10/10 09:26:12;;;;;;;4.57;1.88;;;17.40;99.90;17.40;100946.00;;;;5005817;27;93509;-66
2023/10/10 09:29:03;;;;;;;3.33;0.90;;;17.40;99.90;17.50;100958.00;;;;5004819;27;93251;-64
2023/10/10 09:31:31;;;;;;;1.45;0.95;;;17.40;99.90;17.60;100963.00;;;;5003125;27;93186;-65
2023/10/10 09:34:02;;;;;;;2.05;1.75;;;17.50;99.90;17.70;100956.00;;;;4999441;27;93316;-64
2023/10/10 09:36:28;;;;;;;1.23;1.17;;;17.50;99.90;17.70;100964.00;;;;5005384;27;92121;-65
2023/10/10 09:39:08;;;;;;;1.63;0.85;;;17.60;99.90;17.70;100966.00;;;;5005298;27;93142;-66
2023/10/10 09:49:43;;;;;;;2.05;0.90;;;17.80;99.90;18.00;100979.00;;;;4994798;27;92874;-65
2023/10/10 10:03:31;;;;;;;2.08;1.50;;;18.20;99.90;18.30;100965.00;;;;5007308;27;115316;-65
2023/10/10 10:06:34;;;;;;;3.72;1.63;;;18.20;99.90;18.20;100973.00;;;;5004948;27;92749;-67
2023/10/10 10:09:31;;;;;;;2.38;1.25;;;18.20;99.90;18.20;100967.00;;;;4994700;27;93934;-67
2023/10/10 10:12:33;;;;;;;3.75;1.38;;;18.20;99.90;18.30;100972.00;;;;5004387;27;93663;-66
2023/10/10 10:15:28;;;;;;;1.10;1.00;;;18.20;99.90;18.40;100977.00;;;;4993351;27;93756;-65
2023/10/10 10:18:13;;;;;;;1.58;0.90;;;18.30;99.90;18.50;100985.00;;;;4989192;27;94749;-66
2023/10/10 10:20:46;;;;;;;1.95;1.23;;;18.40;99.90;18.60;100983.00;;;;5007653;27;93067;-66
2023/10/10 10:23:33;;;;;;;1.73;1.20;;;18.40;99.90;18.60;100982.00;;;;5008331;27;92893;-65
2023/10/10 10:26:12;;;;;;;1.67;1.23;;;18.50;99.90;18.70;100984.00;;;;4991254;27;94205;-66
2023/10/10 10:28:42;;;;;;;0.45;0.40;;;18.60;99.90;18.60;100987.00;;;;5002145;27;93870;-65
2023/10/10 10:31:16;;;;;;;1.77;0.95;;;18.60;99.90;18.60;100979.00;;;;5006648;27;92075;-66
2023/10/10 10:34:07;;;;;;;0.90;0.85;;;18.50;99.90;18.50;100987.00;;;;4993577;27;93143;-65
2023/10/10 10:36:44;;;;;;;1.95;1.40;;;18.50;99.90;18.50;100982.00;;;;5005956;27;92805;-67
2023/10/10 10:39:25;;;;;;;0.80;0.73;;;18.40;99.90;18.60;100973.00;;;;5004585;27;93977;-66
2023/10/10 10:41:54;;;;;;;1.33;1.23;;;18.40;99.90;18.60;100983.00;;;;5006749;27;92963;-66
2023/10/10 10:44:47;;;;;;;1.60;1.50;;;18.50;99.90;18.70;100983.00;;;;5008372;27;92978;-65
2023/10/10 10:47:39;;;;;;;1.02;0.90;;;18.60;99.90;18.70;100970.00;;;;5002090;27;93270;-64
2023/10/10 10:50:17;;;;;;;1.38;1.02;;;18.60;99.90;18.80;100967.00;;;;4977854;27;92968;-64
2023/10/10 10:52:55;;;;;;;3.72;1.15;;;18.70;99.90;19.00;100971.00;;;;4995934;27;92874;-65
2023/10/10 10:55:29;;;;;;;1.13;0.70;;;18.80;99.90;19.10;100958.00;;;;4990427;27;94544;-65
2023/10/10 10:58:06;;;;;;;1.38;1.13;;;18.90;99.90;19.10;100966.00;;;;5009164;27;92564;-67
2023/10/10 11:03:35;;;;;;;1.98;0.98;;;18.90;99.90;19.10;100952.00;;;;5004479;27;92817;-67
2023/10/10 11:06:06;;;;;;;1.50;1.05;;;18.90;99.90;19.10;100958.00;;;;5003525;27;96344;-66
2023/10/10 11:14:10;;;;;;;2.67;0.95;;;19.00;99.90;19.00;100950.00;;;;5004394;27;94031;-66
2023/10/10 11:16:46;;;;;;;1.42;1.27;;;18.90;99.90;18.90;100949.00;;;;5007338;27;93196;-66
2023/10/10 11:21:56;;;;;;;1.42;1.00;;;18.80;99.90;18.80;100956.00;;;;4995185;27;92931;-66
2023/10/10 11:24:31;;;;;;;0.80;0.70;;;18.70;99.90;18.80;100950.00;;;;5003986;27;93157;-65
2023/10/10 11:27:07;;;;;;;1.33;0.90;;;18.70;99.90;18.70;100951.00;;;;4983791;27;94333;-66
2023/10/10 11:29:44;;;;;;;1.70;1.23;;;18.60;99.90;18.60;100948.00;;;;4988834;28;92850;-67
2023/10/10 11:32:13;;;;;;;1.27;1.13;;;18.60;99.90;18.50;100937.00;;;;4983815;28;95129;-65
2023/10/10 11:34:46;;;;;;;4.68;1.13;;;18.50;99.90;18.50;100936.00;;;;4974178;28;93000;-67
2023/10/10 11:37:20;;;;;;;1.42;0.77;;;18.40;99.90;18.50;100951.00;;;;4982151;27;93559;-66
2023/10/10 11:40:01;;;;;;;2.13;1.20;;;18.40;99.90;18.60;100936.00;;;;4987888;28;93829;-65
2023/10/10 11:42:33;;;;;;;1.20;1.10;;;18.40;99.90;18.70;100932.00;;;;4987085;28;95064;-65
2023/10/10 11:45:07;;;;;;;0.82;0.82;;;18.50;99.90;18.70;100930.00;;;;4981438;28;93207;-65
2023/10/10 11:47:42;;;;;;;1.33;1.13;;;18.60;99.90;18.80;100932.00;;;;4980791;27;92948;-66
2023/10/10 11:50:15;;;;;;;0.60;0.60;;;18.60;99.90;18.80;100933.00;;;;4985104;27;92182;-65
2023/10/10 11:52:58;;;;;;;1.60;0.82;;;18.70;99.90;18.90;100932.00;;;;4983569;27;92825;-65
2023/10/10 11:55:28;;;;;;;1.60;1.10;;;18.70;99.90;18.90;100933.00;;;;4986968;28;92936;-65
2023/10/10 11:57:58;;;;;;;1.13;0.98;;;18.70;99.90;18.90;100930.00;;;;4949248;28;107698;-67
2023/10/10 12:00:43;;;;;;;1.15;1.10;;;18.80;99.90;18.90;100924.00;;;;4985034;27;92952;-66
2023/10/10 12:03:17;;;;;;;1.67;1.02;;;18.80;99.90;18.90;100929.00;;;;4963916;27;94738;-66
2023/10/10 12:05:49;;;;;;;2.15;1.38;;;18.70;99.90;18.90;100932.00;;;;4973564;28;93022;-67
2023/10/10 12:08:22;;;;;;;0.70;0.68;;;18.70;99.90;18.80;100926.00;;;;4985916;28;93660;-66
2023/10/10 12:10:52;;;;;;;1.90;1.00;;;18.70;99.90;18.80;100929.00;;;;4983707;27;93698;-65
2023/10/10 12:16:07;;;;;;;1.15;1.05;;;18.70;99.90;18.90;100925.00;;;;4983030;27;92164;-66
2023/10/10 12:18:34;;;;;;;3.50;1.25;;;18.70;99.90;18.90;100927.00;;;;4981002;28;93074;-67
2023/10/10 12:21:02;;;;;;;1.48;0.95;;;18.70;99.90;18.80;100929.00;;;;4974147;28;93100;-66
2023/10/10 12:23:31;;;;;;;2.88;1.00;;;18.70;99.90;18.80;100928.00;;;;4984500;28;94064;-66
2023/10/10 12:25:59;;;;;;;2.38;0.98;;;18.70;99.90;18.80;100926.00;;;;4984743;27;92954;-66
2023/10/10 12:28:26;;;;;;;1.55;1.20;;;18.70;99.90;18.90;100927.00;;;;5005986;27;92971;-66
2023/10/10 12:30:56;;;;;;;2.65;1.25;;;18.70;99.90;18.90;100921.00;;;;5003755;27;98849;-65
2023/10/10 12:33:23;;;;;;;2.15;1.60;;;18.70;99.90;18.90;100922.00;;;;5000695;27;93089;-66
2023/10/10 12:35:50;;;;;;;1.58;1.20;;;18.70;99.90;18.90;100914.00;;;;5002151;27;93129;-66
2023/10/10 12:38:20;;;;;;;0.75;0.75;;;18.80;99.90;19.00;100917.00;;;;5000658;27;94455;-67
2023/10/10 12:40:50;;;;;;;1.58;1.48;;;18.80;99.90;19.10;100918.00;;;;5007355;27;93760;-67
2023/10/10 12:43:21;;;;;;;0.70;0.70;;;18.90;99.90;19.20;100914.00;;;;5003981;27;93110;-67
2023/10/10 12:45:47;;;;;;;0.80;0.80;;;19.00;99.90;19.30;100905.00;;;;5001392;27;92565;-67
2023/10/10 12:48:14;;;;;;;2.95;1.10;;;19.10;99.90;19.40;100910.00;;;;4999908;27;108066;-66
2023/10/10 12:50:44;;;;;;;1.60;1.17;;;19.10;99.90;19.60;100899.00;;;;5002704;27;94532;-66
2023/10/10 12:53:15;;;;;;;0.65;0.57;;;19.30;99.90;19.80;100898.00;;;;5000331;27;93296;-67
2023/10/10 12:56:23;;;;;;;1.35;0.85;;;19.50;99.90;20.00;100899.00;;;;5005713;27;93187;-66
2023/10/10 12:58:43;;;;;;;0.75;0.75;;;19.70;99.90;20.30;100899.00;;;;4997525;27;92832;-66
2023/10/10 13:01:14;;;;;;;1.52;1.05;;;20.00;99.90;20.70;100900.00;;;;5004046;27;93705;-66
2023/10/10 13:03:42;;;;;;;3.60;1.27;;;20.30;99.90;21.20;100902.00;;;;5007936;27;93023;-66
2023/10/10 13:06:09;;;;;;;0.80;0.77;;;20.80;99.90;21.60;100899.00;;;;5002681;27;92307;-67
2023/10/10 13:11:20;;;;;;;1.80;1.00;;;21.40;99.90;21.70;100894.00;;;;5003705;27;93016;-66
2023/10/10 13:13:52;;;;;;;1.05;1.05;;;21.50;99.90;21.70;100890.00;;;;5005633;27;93991;-67
2023/10/10 13:16:27;;;;;;;1.80;1.08;;;21.50;99.90;21.70;100890.00;;;;4991967;27;94426;-66
2023/10/10 13:18:56;;;;;;;2.00;0.60;;;21.40;99.90;21.70;100890.00;;;;5004677;27;93053;-66
2023/10/10 13:21:22;;;;;;;0.90;0.70;;;21.40;99.90;21.90;100897.00;;;;4987889;27;96668;-66
2023/10/10 13:23:52;;;;;;;3.83;1.02;;;21.60;99.90;22.20;100885.00;;;;5008183;27;93505;-67
2023/10/10 13:26:21;;;;;;;1.25;1.00;;;21.80;99.90;22.30;100880.00;;;;5007599;27;94233;-66
2023/10/10 13:28:49;;;;;;;1.42;0.60;;;22.00;99.90;22.30;100876.00;;;;5010812;27;92864;-66
2023/10/10 13:31:17;;;;;;;2.40;0.90;;;22.00;99.90;22.50;100869.00;;;;4993335;27;121918;-66
2023/10/10 13:33:44;;;;;;;1.15;0.47;;;22.20;99.60;22.40;100873.00;;;;5006482;27;94801;-67
2023/10/10 13:36:12;;;;;;;1.80;0.88;;;22.10;99.00;22.20;100882.00;;;;5004875;27;92993;-66
2023/10/10 13:38:47;;;;;;;1.02;0.90;;;22.00;98.90;21.90;100893.00;;;;5004151;27;94353;-67
2023/10/10 13:41:18;;;;;;;0.93;0.70;;;21.80;99.00;21.70;100884.00;;;;5003204;27;93642;-67
2023/10/10 13:43:51;;;;;;;1.10;1.00;;;21.60;99.50;21.50;100875.00;;;;5007821;27;92762;-66
2023/10/10 13:46:18;;;;;;;1.23;0.77;;;21.40;99.50;21.30;100863.00;;;;4988046;27;93002;-67
2023/10/10 13:48:45;;;;;;;1.95;1.00;;;21.20;99.50;21.00;100860.00;;;;4984498;27;99970;-67
2023/10/10 13:51:13;;;;;;;1.70;1.20;;;20.90;99.90;20.70;100867.00;;;;5011381;27;94217;-67
2023/10/10 13:53:41;;;;;;;1.20;1.10;;;20.70;99.90;20.60;100878.00;;;;5009512;27;93006;-66
2023/10/10 13:56:07;;;;;;;1.23;0.93;;;20.50;99.90;20.50;100874.00;;;;4990152;27;92538;-66
2023/10/10 13:58:37;;;;;;;1.23;1.13;;;20.40;99.90;20.50;100874.00;;;;5009670;27;93013;-67
2023/10/10 14:01:25;;;;;;;1.92;1.02;;;20.40;99.90;20.60;100875.00;;;;4992851;27;114696;-67
2023/10/10 14:03:57;;;;;;;1.13;0.68;;;20.40;99.90;20.60;100871.00;;;;5003264;27;94322;-67
2023/10/10 14:06:27;;;;;;;1.77;1.30;;;20.40;99.90;20.70;100859.00;;;;4998525;27;93360;-67
2023/10/10 14:08:57;;;;;;;4.93;0.98;;;20.50;99.90;21.00;100865.00;;;;5002914;27;94291;-67